createdAt,value
2023-03-16T00:00:22.442Z,2360.00
2023-03-16T00:01:22.428Z,2358.00
2023-03-16T00:02:22.478Z,2306.00
2023-03-16T00:03:22.453Z,2334.00
2023-03-16T00:04:22.414Z,2385.00
2023-03-16T00:05:22.427Z,2387.00
2023-03-16T00:06:25.182Z,2360.00
2023-03-16T00:07:22.395Z,2361.00
2023-03-16T00:08:22.375Z,2366.00
2023-03-16T00:09:22.389Z,2368.00
2023-03-16T00:10:22.393Z,2367.00
2023-03-16T00:11:22.360Z,2366.00
2023-03-16T00:12:22.364Z,2378.00
2023-03-16T00:13:22.348Z,2368.00
2023-03-16T00:14:22.323Z,2348.00
2023-03-16T00:15:22.349Z,2357.00
2023-03-16T00:16:22.333Z,2346.00
2023-03-16T00:17:22.341Z,2350.00
2023-03-16T00:18:22.329Z,2347.00
2023-03-16T00:19:22.309Z,2365.00
2023-03-16T00:20:22.281Z,2364.00
2023-03-16T00:21:22.292Z,2367.00
2023-03-16T00:22:22.310Z,2370.00
2023-03-16T00:23:22.317Z,2360.00
2023-03-16T00:24:22.263Z,2430.00
2023-03-16T00:25:22.293Z,2409.00
2023-03-16T00:26:22.247Z,2404.00
2023-03-16T00:27:22.265Z,2405.00
2023-03-16T00:28:22.225Z,2400.00
2023-03-16T00:29:22.229Z,2420.00
2023-03-16T00:30:22.248Z,2435.00
2023-03-16T00:31:22.292Z,2456.00
2023-03-16T00:32:22.233Z,2447.00
2023-03-16T00:33:22.211Z,2450.00
2023-03-16T00:34:22.196Z,2455.00
2023-03-16T00:35:22.203Z,2464.00
2023-03-16T00:36:22.187Z,2447.00
2023-03-16T00:37:22.272Z,2469.00
2023-03-16T00:38:22.187Z,2444.00
2023-03-16T00:39:22.162Z,2487.00
2023-03-16T00:40:22.202Z,2470.00
2023-03-16T00:41:22.263Z,2479.00
2023-03-16T00:42:22.348Z,2493.00
2023-03-16T00:43:22.404Z,2497.00
2023-03-16T00:44:22.475Z,2495.00
2023-03-16T00:45:22.570Z,2470.00
2023-03-16T00:46:22.688Z,2495.00
2023-03-16T00:47:22.705Z,2491.00
2023-03-16T00:48:22.771Z,2495.00
2023-03-16T00:49:22.831Z,2505.00
2023-03-16T00:50:22.891Z,2508.00
2023-03-16T00:51:22.970Z,2513.00
2023-03-16T00:52:23.028Z,2501.00
2023-03-16T00:53:23.068Z,2480.00
2023-03-16T00:54:23.136Z,2495.00
2023-03-16T00:55:23.159Z,2500.00
2023-03-16T00:56:23.210Z,2506.00
2023-03-16T00:57:23.274Z,2509.00
2023-03-16T00:58:23.319Z,2503.00
2023-03-16T00:59:23.353Z,2523.00
2023-03-16T01:00:23.467Z,2527.00
2023-03-16T01:01:23.497Z,2540.00
2023-03-16T01:02:23.794Z,2534.00
2023-03-16T01:03:23.690Z,2527.00
2023-03-16T01:04:23.648Z,2527.00
2023-03-16T01:05:23.719Z,2525.00
2023-03-16T01:06:23.750Z,2520.00
2023-03-16T01:07:23.831Z,2515.00
2023-03-16T01:08:23.864Z,2539.00
2023-03-16T01:09:23.952Z,2547.00
2023-03-16T01:10:23.980Z,2548.00
2023-03-16T01:11:24.060Z,2554.00
2023-03-16T01:12:24.119Z,2556.00
2023-03-16T01:13:24.201Z,2562.00
2023-03-16T01:14:24.268Z,2555.00
2023-03-16T01:15:24.311Z,2564.00
2023-03-16T01:16:24.386Z,2552.00
2023-03-16T01:17:24.426Z,2547.00
2023-03-16T01:18:24.478Z,2561.00
2023-03-16T01:19:24.548Z,2600.00
2023-03-16T01:20:24.623Z,2571.00
2023-03-16T01:21:24.680Z,2560.00
2023-03-16T01:22:24.749Z,2568.00
2023-03-16T01:23:24.801Z,2554.00
2023-03-16T01:24:24.865Z,2570.00
2023-03-16T01:25:24.871Z,2557.00
2023-03-16T01:26:24.949Z,2582.00
2023-03-16T01:27:25.019Z,2576.00
2023-03-16T01:28:25.038Z,2573.00
2023-03-16T01:29:25.105Z,2590.00
2023-03-16T01:30:25.457Z,2568.00
2023-03-16T01:31:25.237Z,2571.00
2023-03-16T01:32:25.296Z,2574.00
2023-03-16T01:33:25.352Z,2593.00
2023-03-16T01:34:25.372Z,2602.00
2023-03-16T01:35:25.456Z,2592.00
2023-03-16T01:36:25.513Z,2615.00
2023-03-16T01:37:25.553Z,2615.00
2023-03-16T01:38:25.602Z,2601.00
2023-03-16T01:39:25.653Z,2598.00
2023-03-16T01:40:25.878Z,2598.00
2023-03-16T01:41:25.716Z,2616.00
2023-03-16T01:42:25.805Z,2604.00
2023-03-16T01:43:25.870Z,2593.00
2023-03-16T01:44:25.904Z,2606.00
2023-03-16T01:45:25.973Z,2602.00
2023-03-16T01:46:26.077Z,2622.00
2023-03-16T01:47:26.085Z,2615.00
2023-03-16T01:48:26.160Z,2622.00
2023-03-16T01:49:26.258Z,2622.00
2023-03-16T01:50:26.493Z,2624.00
2023-03-16T01:51:26.332Z,2622.00
2023-03-16T01:52:26.395Z,2596.00
2023-03-16T01:53:26.467Z,2575.00
2023-03-16T01:54:26.529Z,2590.00
2023-03-16T01:55:26.594Z,2592.00
2023-03-16T01:56:26.684Z,2557.00
2023-03-16T01:57:26.714Z,2554.00
2023-03-16T01:58:26.759Z,2562.00
2023-03-16T01:59:26.830Z,2559.00
2023-03-16T02:00:27.225Z,2554.00
2023-03-16T02:01:26.986Z,2523.00
2023-03-16T02:02:27.074Z,2506.00
2023-03-16T02:03:27.065Z,2509.00
2023-03-16T02:04:27.179Z,2525.00
2023-03-16T02:05:27.178Z,2509.00
2023-03-16T02:06:27.230Z,2482.00
2023-03-16T02:07:27.287Z,2478.00
2023-03-16T02:08:27.398Z,2477.00
2023-03-16T02:09:27.437Z,2471.00
2023-03-16T02:10:27.707Z,2486.00
2023-03-16T02:11:27.537Z,2491.00
2023-03-16T02:12:27.599Z,2508.00
2023-03-16T02:13:27.650Z,2515.00
2023-03-16T02:14:27.699Z,2501.00
2023-03-16T02:15:27.779Z,2505.00
2023-03-16T02:16:27.807Z,2515.00
2023-03-16T02:17:27.926Z,2517.00
2023-03-16T02:18:27.961Z,2529.00
2023-03-16T02:19:28.002Z,2541.00
2023-03-16T02:20:28.226Z,2540.00
2023-03-16T02:21:28.166Z,2556.00
2023-03-16T02:22:28.191Z,2567.00
2023-03-16T02:23:28.243Z,2554.00
2023-03-16T02:24:28.295Z,2589.00
2023-03-16T02:25:28.315Z,2594.00
2023-03-16T02:26:28.350Z,2592.00
2023-03-16T02:27:28.420Z,2640.00
2023-03-16T02:28:28.479Z,2636.00
2023-03-16T02:29:28.504Z,2605.00
2023-03-16T02:30:28.784Z,2609.00
2023-03-16T02:31:28.607Z,2591.00
2023-03-16T02:32:28.632Z,2630.00
2023-03-16T02:33:28.620Z,2685.00
2023-03-16T02:34:28.630Z,2710.00
2023-03-16T02:35:28.724Z,2720.00
2023-03-16T02:36:28.689Z,2714.00
2023-03-16T02:37:28.738Z,2760.00
2023-03-16T02:38:28.775Z,2758.00
2023-03-16T02:39:28.853Z,2792.00
2023-03-16T02:40:29.223Z,2796.00
2023-03-16T02:41:28.926Z,2846.00
2023-03-16T02:42:29.012Z,2854.00
2023-03-16T02:43:29.020Z,2827.00
2023-03-16T02:44:29.040Z,2783.00
2023-03-16T02:45:29.100Z,2780.00
2023-03-16T02:46:29.235Z,2767.00
2023-03-16T02:47:29.188Z,2765.00
2023-03-16T02:48:29.206Z,2718.00
2023-03-16T02:49:29.221Z,2727.00
2023-03-16T02:50:29.604Z,2749.00
2023-03-16T02:51:29.283Z,2775.00
2023-03-16T02:52:29.295Z,2748.00
2023-03-16T02:53:29.319Z,2724.00
2023-03-16T02:54:29.299Z,2728.00
2023-03-16T02:55:29.381Z,2735.00
2023-03-16T02:56:29.391Z,2719.00
2023-03-16T02:57:29.391Z,2704.00
2023-03-16T02:58:29.416Z,2691.00
2023-03-16T02:59:29.410Z,2696.00
2023-03-16T03:00:29.795Z,2688.00
2023-03-16T03:01:29.499Z,2681.00
2023-03-16T03:02:29.522Z,2680.00
2023-03-16T03:03:29.649Z,2706.00
2023-03-16T03:04:29.629Z,2711.00
2023-03-16T03:05:29.683Z,2707.00
2023-03-16T03:06:29.727Z,2693.00
2023-03-16T03:07:29.761Z,2710.00
2023-03-16T03:08:29.783Z,2688.00
2023-03-16T03:09:29.772Z,2700.00
2023-03-16T03:10:29.954Z,2703.00
2023-03-16T03:11:29.765Z,2703.00
2023-03-16T03:12:29.793Z,2705.00
2023-03-16T03:13:29.801Z,2692.00
2023-03-16T03:14:29.793Z,2705.00
2023-03-16T03:15:29.813Z,2701.00
2023-03-16T03:16:29.897Z,2696.00
2023-03-16T03:17:29.814Z,2691.00
2023-03-16T03:18:29.862Z,2700.00
2023-03-16T03:19:29.829Z,2686.00
2023-03-16T03:20:30.322Z,2705.00
2023-03-16T03:21:29.863Z,2696.00
2023-03-16T03:22:29.880Z,2661.00
2023-03-16T03:23:29.917Z,2665.00
2023-03-16T03:24:29.905Z,2647.00
2023-03-16T03:25:29.939Z,2676.00
2023-03-16T03:26:29.974Z,2644.00
2023-03-16T03:27:30.028Z,2652.00
2023-03-16T03:28:30.024Z,2653.00
2023-03-16T03:29:30.051Z,2654.00
2023-03-16T03:30:30.236Z,2669.00
2023-03-16T03:31:30.183Z,2662.00
2023-03-16T03:32:30.173Z,2665.00
2023-03-16T03:33:30.235Z,2675.00
2023-03-16T03:34:30.251Z,2667.00
2023-03-16T03:35:30.323Z,2671.00
2023-03-16T03:36:30.325Z,2698.00
2023-03-16T03:37:31.075Z,2701.00
2023-03-16T03:38:30.404Z,2712.00
2023-03-16T04:02:31.800Z,2750.00
2023-03-16T04:03:31.874Z,2741.00
2023-03-16T04:04:31.818Z,2755.00
2023-03-16T04:05:31.854Z,2736.00
2023-03-16T04:06:31.948Z,2758.00
2023-03-16T04:07:31.990Z,2735.00
2023-03-16T04:08:32.058Z,2738.00
2023-03-16T04:09:32.122Z,2763.00
2023-03-16T04:10:32.161Z,2771.00
2023-03-16T04:11:32.214Z,2782.00
2023-03-16T04:12:32.284Z,2763.00
2023-03-16T04:13:32.316Z,2770.00
2023-03-16T04:14:32.381Z,2774.00
2023-03-16T04:15:32.435Z,2797.00
2023-03-16T04:16:32.554Z,2794.00
2023-03-16T04:17:32.692Z,2799.00
2023-03-16T04:18:32.636Z,2823.00
2023-03-16T04:19:32.645Z,2817.00
2023-03-16T04:20:32.749Z,2823.00
2023-03-16T04:21:32.816Z,2835.00
2023-03-16T04:22:32.848Z,2818.00
2023-03-16T04:23:32.897Z,2830.00
2023-03-16T04:24:32.945Z,2812.00
2023-03-16T04:25:33.014Z,2817.00
2023-03-16T04:26:33.069Z,2822.00
2023-03-16T04:27:33.140Z,2833.00
2023-03-16T04:28:33.182Z,2832.00
2023-03-16T04:29:33.252Z,2840.00
2023-03-16T04:30:33.301Z,2832.00
2023-03-16T04:31:33.507Z,2830.00
2023-03-16T04:32:33.437Z,2844.00
2023-03-16T04:33:33.443Z,2839.00
2023-03-16T04:34:33.535Z,2832.00
2023-03-16T04:35:33.605Z,2840.00
2023-03-16T04:36:33.638Z,2837.00
2023-03-16T04:37:33.697Z,2850.00
2023-03-16T04:38:33.766Z,2842.00
2023-03-16T04:39:33.804Z,2829.00
2023-03-16T04:40:33.865Z,2851.00
2023-03-16T04:41:33.923Z,2840.00
2023-03-16T04:42:33.967Z,2835.00
2023-03-16T04:43:34.032Z,2862.00
2023-03-16T04:44:34.067Z,2835.00
2023-03-16T04:45:34.136Z,2852.00
2023-03-16T04:46:34.260Z,2844.00
2023-03-16T04:47:34.272Z,2847.00
2023-03-16T04:48:34.335Z,2857.00
2023-03-16T04:49:34.380Z,2862.00
2023-03-16T04:50:34.455Z,2851.00
2023-03-16T04:51:34.497Z,2863.00
2023-03-16T04:52:34.600Z,2865.00
2023-03-16T04:53:34.639Z,2842.00
2023-03-16T04:54:34.719Z,2860.00
2023-03-16T04:55:34.755Z,2844.00
2023-03-16T04:56:34.834Z,2830.00
2023-03-16T04:57:34.860Z,2859.00
2023-03-16T04:58:34.997Z,2863.00
2023-03-16T04:59:35.018Z,2858.00
2023-03-16T05:00:35.049Z,2876.00
2023-03-16T05:01:35.176Z,2868.00
2023-03-16T05:02:35.211Z,2866.00
2023-03-16T05:03:35.250Z,2875.00
2023-03-16T05:04:35.314Z,2858.00
2023-03-16T05:05:35.508Z,2865.00
2023-03-16T05:06:35.422Z,2860.00
2023-03-16T05:07:35.486Z,2859.00
2023-03-16T05:08:35.601Z,2852.00
2023-03-16T05:09:35.605Z,2858.00
2023-03-16T05:10:35.664Z,2852.00
2023-03-16T05:11:35.717Z,2871.00
2023-03-16T05:12:35.778Z,2866.00
2023-03-16T05:13:35.853Z,2867.00
2023-03-16T05:14:35.894Z,2867.00
2023-03-16T05:15:36.049Z,2858.00
2023-03-16T05:16:36.024Z,2843.00
2023-03-16T05:17:36.064Z,2836.00
2023-03-16T05:18:36.145Z,2850.00
2023-03-16T05:19:36.217Z,2852.00
2023-03-16T05:20:36.260Z,2854.00
2023-03-16T05:21:36.332Z,2843.00
2023-03-16T05:22:36.355Z,2842.00
2023-03-16T05:23:36.436Z,2834.00
2023-03-16T05:24:36.495Z,2846.00
2023-03-16T05:25:36.561Z,2842.00
2023-03-16T05:26:37.263Z,2817.00
2023-03-16T05:27:36.692Z,2835.00
2023-03-16T05:28:36.717Z,2829.00
2023-03-16T05:29:36.787Z,2836.00
2023-03-16T05:30:36.864Z,2842.00
2023-03-16T05:31:36.911Z,2831.00
2023-03-16T05:32:36.954Z,2832.00
2023-03-16T05:33:36.990Z,2841.00
2023-03-16T05:34:37.047Z,2834.00
2023-03-16T05:35:37.091Z,2832.00
2023-03-16T05:36:37.152Z,2838.00
2023-03-16T05:37:37.175Z,2844.00
2023-03-16T05:38:37.225Z,2822.00
2023-03-16T05:39:37.264Z,2848.00
2023-03-16T05:40:37.404Z,2849.00
2023-03-16T05:41:37.353Z,2853.00
2023-03-16T05:42:37.431Z,2843.00
2023-03-16T05:43:37.486Z,2837.00
2023-03-16T05:44:37.508Z,2853.00
2023-03-16T05:45:37.553Z,2831.00
2023-03-16T05:46:37.675Z,2825.00
2023-03-16T05:47:37.651Z,2817.00
2023-03-16T05:48:37.689Z,2838.00
2023-03-16T05:49:37.767Z,2831.00
2023-03-16T05:50:37.827Z,2813.00
2023-03-16T05:51:37.826Z,2819.00
2023-03-16T05:52:37.903Z,2822.00
2023-03-16T05:53:37.957Z,2819.00
2023-03-16T05:54:37.979Z,2820.00
2023-03-16T05:55:38.029Z,2825.00
2023-03-16T05:56:38.165Z,2815.00
2023-03-16T05:57:38.108Z,2830.00
2023-03-16T05:58:38.143Z,2830.00
2023-03-16T05:59:38.206Z,2830.00
2023-03-16T06:00:38.251Z,2828.00
2023-03-16T06:01:45.298Z,2795.00
2023-03-16T06:02:38.305Z,2797.00
2023-03-16T06:03:38.298Z,2797.00
2023-03-16T06:04:38.242Z,2803.00
2023-03-16T06:05:38.222Z,2806.00
2023-03-16T06:06:38.204Z,2808.00
2023-03-16T06:07:38.240Z,2822.00
2023-03-16T06:08:38.227Z,2819.00
2023-03-16T06:09:38.238Z,2808.00
2023-03-16T06:10:38.198Z,2820.00
2023-03-16T06:11:38.186Z,2795.00
2023-03-16T06:12:38.211Z,2828.00
2023-03-16T06:13:38.226Z,2803.00
2023-03-16T06:14:38.162Z,2813.00
2023-03-16T06:15:38.182Z,2805.00
2023-03-16T06:16:38.260Z,3305.00
2023-03-16T06:17:38.153Z,3147.00
2023-03-16T06:18:38.144Z,3155.00
2023-03-16T06:19:38.146Z,3310.00
2023-03-16T06:20:38.171Z,3673.00
2023-03-16T06:21:38.236Z,4048.00
2023-03-16T06:22:38.127Z,4120.00
2023-03-16T06:23:38.095Z,4483.00
2023-03-16T06:24:38.136Z,4573.00
2023-03-16T06:25:40.601Z,4587.00
2023-03-16T06:26:38.286Z,4570.00
2023-03-16T06:27:38.268Z,4556.00
2023-03-16T06:28:38.309Z,4524.00
2023-03-16T06:29:38.382Z,4507.00
2023-03-16T06:30:38.281Z,4454.00
2023-03-16T06:31:38.397Z,4399.00
2023-03-16T06:32:38.318Z,4350.00
2023-03-16T06:33:38.296Z,4320.00
2023-03-16T06:34:39.610Z,4148.00
2023-03-16T06:35:38.377Z,3999.00
2023-03-16T06:36:38.317Z,3874.00
2023-03-16T06:37:38.341Z,3782.00
2023-03-16T06:38:38.477Z,3598.00
2023-03-16T06:39:38.682Z,3460.00
2023-03-16T06:40:38.377Z,3350.00
2023-03-16T06:41:38.355Z,3365.00
2023-03-16T06:42:38.339Z,3332.00
2023-03-16T06:43:38.371Z,3367.00
2023-03-16T06:44:38.686Z,3359.00
2023-03-16T06:45:38.524Z,3450.00
2023-03-16T06:46:45.353Z,3468.00
2023-03-16T06:47:38.388Z,3426.00
2023-03-16T06:48:38.443Z,3173.00
2023-03-16T06:49:38.397Z,3072.00
2023-03-16T06:50:38.364Z,3171.00
2023-03-16T06:51:38.349Z,2973.00
2023-03-16T06:52:38.368Z,3059.00
2023-03-16T06:53:38.404Z,2951.00
2023-03-16T06:54:38.378Z,3010.00
2023-03-16T06:55:38.342Z,3353.00
2023-03-16T06:56:38.372Z,3445.00
2023-03-16T06:57:38.338Z,3384.00
2023-03-16T06:58:38.340Z,3426.00
2023-03-16T06:59:38.777Z,3471.00
2023-03-16T07:00:38.291Z,3481.00
2023-03-16T07:01:38.294Z,3515.00
2023-03-16T07:02:38.355Z,3539.00
2023-03-16T07:03:38.293Z,3527.00
2023-03-16T07:04:38.779Z,3531.00
2023-03-16T07:05:38.303Z,3569.00
2023-03-16T07:06:38.313Z,3563.00
2023-03-16T07:07:38.281Z,3589.00
2023-03-16T07:08:38.275Z,3578.00
2023-03-16T07:09:41.058Z,3592.00
2023-03-16T07:10:38.751Z,3594.00
2023-03-16T07:11:38.240Z,3599.00
2023-03-16T07:12:38.212Z,3613.00
2023-03-16T07:13:38.209Z,3652.00
2023-03-16T07:14:38.208Z,3719.00
2023-03-16T07:15:38.299Z,3716.00
2023-03-16T07:16:38.369Z,3741.00
2023-03-16T07:17:38.162Z,3796.00
2023-03-16T07:18:38.203Z,3778.00
2023-03-16T07:19:38.192Z,3764.00
2023-03-16T07:20:38.189Z,3823.00
2023-03-16T07:21:38.183Z,3781.00
2023-03-16T07:22:38.153Z,3804.00
2023-03-16T07:23:38.163Z,3819.00
2023-03-16T07:24:38.125Z,3865.00
2023-03-16T07:25:38.118Z,3841.00
2023-03-16T07:26:38.137Z,3854.00
2023-03-16T07:27:38.138Z,3875.00
2023-03-16T07:28:38.338Z,3872.00
2023-03-16T07:29:38.089Z,3885.00
2023-03-16T07:30:38.089Z,3893.00
2023-03-16T07:31:38.118Z,3890.00
2023-03-16T07:32:38.109Z,3905.00
2023-03-16T07:33:38.070Z,3908.00
2023-03-16T07:34:38.042Z,3822.00
2023-03-16T07:35:38.134Z,3673.00
2023-03-16T07:36:38.041Z,3436.00
2023-03-16T07:37:38.024Z,3245.00
2023-03-16T07:38:38.042Z,3075.00
2023-03-16T07:39:38.076Z,3047.00
2023-03-16T07:40:38.009Z,3130.00
2023-03-16T07:41:37.992Z,3160.00
2023-03-16T07:42:38.033Z,3205.00
2023-03-16T07:43:38.042Z,3254.00
2023-03-16T07:44:37.988Z,3232.00
2023-03-16T07:45:38.007Z,3216.00
2023-03-16T07:46:38.002Z,3244.00
2023-03-16T07:47:37.967Z,3249.00
2023-03-16T07:48:37.974Z,3233.00
2023-03-16T07:49:37.938Z,3216.00
2023-03-16T07:50:37.951Z,3202.00
2023-03-16T07:51:37.937Z,3207.00
2023-03-16T07:52:38.012Z,3204.00
2023-03-16T07:53:37.937Z,3168.00
2023-03-16T07:54:37.960Z,3156.00
2023-03-16T07:55:37.987Z,3136.00
2023-03-16T07:56:48.329Z,3137.00
2023-03-16T07:57:39.034Z,3137.00
2023-03-16T07:58:38.033Z,3118.00
2023-03-16T07:59:38.006Z,3085.00
2023-03-16T08:00:37.997Z,3090.00
2023-03-16T08:01:37.996Z,3119.00
2023-03-16T08:02:38.037Z,3112.00
2023-03-16T08:03:38.142Z,3087.00
2023-03-16T08:04:37.980Z,3087.00
2023-03-16T08:05:37.942Z,3095.00
2023-03-16T08:06:37.959Z,3088.00
2023-03-16T08:07:37.996Z,3093.00
2023-03-16T08:08:37.929Z,3090.00
2023-03-16T08:09:37.953Z,3059.00
2023-03-16T08:10:38.256Z,3056.00
2023-03-16T08:11:37.961Z,3057.00
2023-03-16T08:12:38.049Z,3033.00
2023-03-16T08:13:37.934Z,3024.00
2023-03-16T08:14:37.960Z,3022.00
2023-03-16T08:15:38.269Z,3032.00
2023-03-16T08:16:38.019Z,3023.00
2023-03-16T08:17:38.090Z,2995.00
2023-03-16T08:18:38.069Z,2967.00
2023-03-16T08:19:38.078Z,2970.00
2023-03-16T08:20:38.394Z,2965.00
2023-03-16T08:21:48.836Z,2976.00
2023-03-16T08:22:39.238Z,2977.00
2023-03-16T08:23:38.095Z,2962.00
2023-03-16T08:24:38.081Z,2944.00
2023-03-16T08:25:38.068Z,2924.00
2023-03-16T08:26:39.566Z,2926.00
2023-03-16T08:27:38.059Z,2942.00
2023-03-16T08:28:38.058Z,2886.00
2023-03-16T08:29:38.044Z,2860.00
2023-03-16T08:30:38.244Z,2858.00
2023-03-16T08:31:38.115Z,2856.00
2023-03-16T08:32:38.095Z,2839.00
2023-03-16T08:33:38.011Z,2821.00
2023-03-16T08:34:38.026Z,2826.00
2023-03-16T08:35:38.363Z,2840.00
2023-03-16T08:36:37.988Z,2838.00
2023-03-16T08:37:38.004Z,2836.00
2023-03-16T08:38:37.978Z,2828.00
2023-03-16T08:39:37.981Z,2828.00
2023-03-16T08:40:37.987Z,2826.00
2023-03-16T08:41:38.255Z,2833.00
2023-03-16T08:42:37.977Z,2835.00
2023-03-16T08:43:37.998Z,2690.00
2023-03-16T08:44:38.046Z,2595.00
2023-03-16T08:45:38.042Z,2403.00
2023-03-16T08:46:38.191Z,2194.00
2023-03-16T08:47:38.157Z,2127.00
2023-03-16T08:48:38.221Z,2052.00
2023-03-16T08:49:38.257Z,2077.00
2023-03-16T08:50:38.301Z,2077.00
2023-03-16T08:51:38.248Z,2238.00
2023-03-16T08:52:38.320Z,2143.00
2023-03-16T08:53:38.323Z,2166.00
2023-03-16T08:54:38.314Z,1983.00
2023-03-16T08:55:38.312Z,2010.00
2023-03-16T08:56:38.378Z,2145.00
2023-03-16T08:57:38.386Z,2242.00
2023-03-16T08:58:38.410Z,2355.00
2023-03-16T08:59:38.476Z,2187.00
2023-03-16T09:00:38.516Z,2043.00
2023-03-16T09:01:38.636Z,2010.00
2023-03-16T09:02:38.789Z,1989.00
2023-03-16T09:03:38.580Z,1893.00
2023-03-16T09:04:38.615Z,1875.00
2023-03-16T09:05:38.585Z,1811.00
2023-03-16T09:06:38.600Z,1615.00
2023-03-16T09:07:38.562Z,1622.00
2023-03-16T09:08:38.590Z,1587.00
2023-03-16T09:09:38.617Z,1596.00
2023-03-16T09:10:38.584Z,1665.00
2023-03-16T09:11:38.624Z,1665.00
2023-03-16T09:12:38.591Z,1471.00
2023-03-16T09:13:38.632Z,1467.00
2023-03-16T09:14:38.781Z,1430.00
2023-03-16T09:15:38.631Z,1380.00
2023-03-16T09:16:38.764Z,1256.00
2023-03-16T09:17:38.675Z,1345.00
2023-03-16T09:18:38.645Z,1312.00
2023-03-16T09:19:50.963Z,1217.00
2023-03-16T09:20:40.053Z,1218.00
2023-03-16T09:21:38.665Z,1196.00
2023-03-16T09:22:38.603Z,1224.00
2023-03-16T09:23:38.635Z,1231.00
2023-03-16T09:24:38.583Z,1124.00
2023-03-16T09:25:38.595Z,942.00
2023-03-16T09:26:38.700Z,851.00
2023-03-16T09:27:38.605Z,888.00
2023-03-16T09:28:38.585Z,1069.00
2023-03-16T09:29:38.607Z,995.00
2023-03-16T09:30:38.563Z,1066.00
2023-03-16T09:31:38.835Z,1060.00
2023-03-16T09:32:38.660Z,1199.00
2023-03-16T09:38:38.541Z,906.00
2023-03-16T09:39:40.318Z,855.00
2023-03-16T09:40:38.496Z,875.00
2023-03-16T09:41:39.101Z,982.00
2023-03-16T09:42:38.543Z,981.00
2023-03-16T09:43:38.590Z,982.00
2023-03-16T09:44:38.668Z,957.00
2023-03-16T09:45:38.915Z,922.00
2023-03-16T09:46:38.805Z,1008.00
2023-03-16T09:47:38.710Z,1085.00
2023-03-16T09:48:38.741Z,1203.00
2023-03-16T09:49:38.733Z,1351.00
2023-03-16T09:50:48.468Z,1476.00
2023-03-16T09:51:39.771Z,1009.00
2023-03-16T09:52:38.727Z,400.00
2023-03-16T09:53:38.708Z,400.00
2023-03-16T09:54:38.725Z,574.00
2023-03-16T09:55:38.702Z,647.00
2023-03-16T09:56:38.743Z,660.00
2023-03-16T09:57:38.682Z,734.00
2023-03-16T09:58:38.685Z,835.00
2023-03-16T09:59:38.689Z,930.00
2023-03-16T10:00:38.690Z,947.00
2023-03-16T10:01:38.726Z,1234.00
2023-03-16T10:02:38.747Z,1359.00
2023-03-16T10:03:38.782Z,1514.00
2023-03-16T10:04:38.791Z,1635.00
2023-03-16T10:05:38.805Z,1694.00
2023-03-16T10:06:38.802Z,1603.00
2023-03-16T10:07:38.823Z,1462.00
2023-03-16T10:08:38.829Z,1571.00
2023-03-16T10:09:38.828Z,1555.00
2023-03-16T10:10:38.824Z,1444.00
2023-03-16T10:11:38.855Z,1413.00
2023-03-16T10:12:38.839Z,1438.00
2023-03-16T10:13:38.848Z,1571.00
2023-03-16T10:14:38.931Z,1772.00
2023-03-16T10:15:38.867Z,1957.00
2023-03-16T10:16:38.907Z,1903.00
2023-03-16T10:17:39.324Z,1998.00
2023-03-16T10:18:38.961Z,2193.00
2023-03-16T10:19:39.042Z,2331.00
2023-03-16T10:20:39.108Z,2346.00
2023-03-16T10:22:39.237Z,2422.00
2023-03-16T10:23:40.936Z,2485.00
2023-03-16T10:24:39.244Z,2556.00
2023-03-16T10:25:39.349Z,2627.00
2023-03-16T10:26:39.352Z,2695.00
2023-03-16T10:27:39.378Z,2733.00
2023-03-16T10:28:39.379Z,2799.00
2023-03-16T10:29:39.405Z,2846.00
2023-03-16T10:30:39.428Z,2891.00
2023-03-16T10:31:39.505Z,2927.00
2023-03-16T10:32:39.491Z,2947.00
2023-03-16T10:33:39.614Z,2992.00
2023-03-16T10:34:39.450Z,3011.00
2023-03-16T10:35:39.478Z,3056.00
2023-03-16T10:36:39.536Z,3037.00
2023-03-16T10:37:39.492Z,3119.00
2023-03-16T10:38:39.481Z,3166.00
2023-03-16T10:39:39.585Z,3180.00
2023-03-16T10:40:39.667Z,3174.00
2023-03-16T10:41:39.749Z,3221.00
2023-03-16T10:42:40.308Z,3177.00
2023-03-16T10:43:39.886Z,2771.00
2023-03-16T10:44:39.889Z,2391.00
2023-03-16T10:45:39.949Z,2176.00
2023-03-16T10:46:40.051Z,2119.00
2023-03-16T10:47:40.311Z,1865.00
2023-03-16T10:48:40.044Z,1711.00
2023-03-16T10:49:40.074Z,1859.00
2023-03-16T10:50:40.127Z,2071.00
2023-03-16T10:51:40.191Z,2222.00
2023-03-16T10:52:40.419Z,2322.00
2023-03-16T10:53:40.310Z,2411.00
2023-03-16T10:54:40.322Z,2538.00
2023-03-16T10:55:40.373Z,2506.00
2023-03-16T10:56:40.408Z,2593.00
2023-03-16T10:58:40.524Z,2672.00
2023-03-16T11:00:40.515Z,2771.00
2023-03-16T11:01:40.577Z,2815.00
2023-03-16T11:02:40.520Z,2868.00
2023-03-16T11:03:40.536Z,2898.00
2023-03-16T11:04:40.628Z,2938.00
2023-03-16T11:05:40.693Z,2968.00
2023-03-16T11:06:40.763Z,3092.00
2023-03-16T11:08:40.807Z,3268.00
2023-03-16T11:09:40.872Z,3249.00
2023-03-16T11:10:54.726Z,3233.00
2023-03-16T11:11:41.918Z,3235.00
2023-03-16T11:12:41.338Z,3239.00
2023-03-16T11:13:40.947Z,3276.00
2023-03-16T11:14:40.909Z,3333.00
2023-03-16T11:15:40.901Z,3345.00
2023-03-16T11:16:40.955Z,3361.00
2023-03-16T11:17:41.339Z,3359.00
2023-03-16T11:18:40.961Z,3381.00
2023-03-16T11:19:40.873Z,3430.00
2023-03-16T11:20:40.845Z,3365.00
2023-03-16T11:21:40.854Z,3389.00
2023-03-16T11:23:40.967Z,3439.00
2023-03-16T11:24:40.981Z,3429.00
2023-03-16T11:26:41.069Z,3465.00
2023-03-16T11:28:41.102Z,3502.00
2023-03-16T11:37:41.945Z,3397.00
2023-03-16T11:48:41.708Z,616.00
2023-03-16T11:49:42.081Z,636.00
2023-03-16T11:50:41.783Z,605.00
2023-03-16T11:51:42.350Z,587.00
2023-03-16T11:52:41.913Z,558.00
2023-03-16T11:53:41.945Z,500.00
2023-03-16T11:54:42.015Z,506.00
2023-03-16T11:55:42.079Z,491.00
2023-03-16T11:56:42.077Z,495.00
2023-03-16T11:57:42.096Z,467.00
2023-03-16T11:58:42.134Z,517.00
2023-03-16T11:59:46.299Z,599.00
2023-03-16T12:00:43.111Z,576.00
2023-03-16T12:01:47.726Z,470.00
2023-03-16T12:02:43.220Z,419.00
2023-03-16T12:03:42.376Z,483.00
2023-03-16T12:04:42.121Z,530.00
2023-03-16T12:05:43.394Z,539.00
2023-03-16T12:06:42.082Z,487.00
2023-03-16T12:07:42.092Z,537.00
2023-03-16T12:08:42.065Z,498.00
2023-03-16T12:09:42.069Z,476.00
2023-03-16T12:10:42.118Z,471.00
2023-03-16T12:11:42.096Z,478.00
2023-03-16T12:12:42.053Z,534.00
2023-03-16T12:13:42.050Z,753.00
2023-03-16T12:14:42.036Z,1859.00
2023-03-16T12:15:42.064Z,2019.00
2023-03-16T12:16:49.113Z,2115.00
2023-03-16T12:17:43.121Z,2117.00
2023-03-16T12:18:42.358Z,2125.00
2023-03-16T12:19:42.076Z,2186.00
2023-03-16T12:20:42.095Z,2234.00
2023-03-16T12:21:42.074Z,2183.00
2023-03-16T12:22:42.097Z,2038.00
2023-03-16T12:23:42.042Z,2046.00
2023-03-16T12:24:42.036Z,2012.00
2023-03-16T12:25:42.031Z,1917.00
2023-03-16T12:26:42.026Z,1884.00
2023-03-16T12:27:42.025Z,2031.00
2023-03-16T12:28:42.040Z,1927.00
2023-03-16T12:29:42.049Z,1989.00
2023-03-16T12:30:42.036Z,1818.00
2023-03-16T12:31:42.108Z,1566.00
2023-03-16T12:32:42.171Z,1514.00
2023-03-16T12:33:42.361Z,1577.00
2023-03-16T12:34:42.168Z,1507.00
2023-03-16T12:35:42.211Z,1366.00
2023-03-16T12:36:42.241Z,1376.00
2023-03-16T12:37:42.237Z,1342.00
2023-03-16T12:38:42.412Z,1450.00
2023-03-16T12:39:42.260Z,1375.00
2023-03-16T12:40:42.244Z,1499.00
2023-03-16T12:41:42.252Z,1650.00
2023-03-16T12:42:42.323Z,1768.00
2023-03-16T12:43:42.362Z,1822.00
2023-03-16T12:44:42.454Z,1959.00
2023-03-16T12:45:42.521Z,2158.00
2023-03-16T12:46:42.480Z,2296.00
2023-03-16T12:47:42.468Z,2444.00
2023-03-16T12:48:42.473Z,2317.00
2023-03-16T12:49:42.488Z,2379.00
2023-03-16T12:50:42.546Z,2454.00
2023-03-16T12:51:42.649Z,2399.00
2023-03-16T12:52:42.661Z,2642.00
2023-03-16T12:53:42.726Z,2813.00
2023-03-16T12:54:42.750Z,2819.00
2023-03-16T12:55:42.833Z,2808.00
2023-03-16T12:56:42.862Z,2854.00
2023-03-16T12:57:42.929Z,2748.00
2023-03-16T12:58:42.945Z,2822.00
2023-03-16T12:59:43.135Z,2822.00
2023-03-16T13:00:43.069Z,2885.00